Time;durP1;ratioP1;P1;durP2;ratioP2;P2;SDS_P1;SDS_P2;PMS_P1;PMS_P2;Temp;Humidity;BMP_temperature;BMP_pressure;BME280_temperature;BME280_humidity;BME280_pressure;Samples;Min_cycle;Max_cycle;Signal;HPM_P1;HPM_P2
2023/02/15 00:01:37;;;;;;;20.70;17.17;;;-0.50;99.90;;;0.22;100.00;99273.97;5224224;28;20209;-81
2023/02/15 00:04:14;;;;;;;19.30;17.20;;;-0.50;99.90;;;0.18;100.00;99266.78;5223380;28;20220;-81
2023/02/15 00:06:48;;;;;;;21.93;17.43;;;-0.50;99.90;;;0.00;100.00;99262.97;5226427;28;20220;-81
2023/02/15 00:09:21;;;;;;;18.13;16.10;;;-0.60;99.90;;;-0.05;100.00;99262.41;5224809;28;20197;-81
2023/02/15 00:11:54;;;;;;;18.63;15.43;;;-0.70;99.90;;;-0.04;100.00;99256.66;5226934;28;20589;-81
2023/02/15 00:14:27;;;;;;;18.53;16.23;;;-0.70;99.90;;;0.00;100.00;99255.44;5228424;28;20230;-80
2023/02/15 00:17:00;;;;;;;19.60;16.60;;;-0.60;99.90;;;-0.06;100.00;99255.59;5227109;28;20192;-81
2023/02/15 00:19:34;;;;;;;18.73;16.70;;;-0.70;99.90;;;-0.03;100.00;99250.94;5227749;28;20580;-81
2023/02/15 00:22:08;;;;;;;17.83;15.50;;;-0.70;99.90;;;-0.04;100.00;99249.13;5229856;28;20197;-80
2023/02/15 00:24:41;;;;;;;19.50;16.67;;;-0.70;99.90;;;-0.05;100.00;99244.81;5225612;28;20310;-81
2023/02/15 00:27:14;;;;;;;21.50;17.67;;;-0.70;99.90;;;-0.21;100.00;99248.72;5222752;28;20231;-81
2023/02/15 00:29:48;;;;;;;20.53;17.60;;;-0.80;99.90;;;-0.20;100.00;99249.59;5226684;28;20214;-81
2023/02/15 00:32:21;;;;;;;21.10;17.07;;;-0.80;99.90;;;-0.23;100.00;99245.09;5225585;28;20290;-80
2023/02/15 00:34:56;;;;;;;20.67;16.50;;;-0.80;99.90;;;-0.23;100.00;99245.09;5227648;28;20267;-81
2023/02/15 00:37:29;;;;;;;21.57;17.80;;;-0.80;99.90;;;-0.16;100.00;99247.66;5227697;28;20202;-80
2023/02/15 00:40:02;;;;;;;21.00;17.13;;;-0.80;99.90;;;-0.11;100.00;99246.59;5227346;28;20200;-81
2023/02/15 00:42:35;;;;;;;19.33;16.90;;;-0.80;99.90;;;-0.07;100.00;99248.75;5225116;28;20200;-79
2023/02/15 00:45:10;;;;;;;20.93;17.73;;;-0.70;99.90;;;-0.10;100.00;99248.38;5228423;28;20255;-79
2023/02/15 00:47:43;;;;;;;21.30;17.90;;;-0.70;99.90;;;-0.08;100.00;99253.63;5225188;28;20214;-79
2023/02/15 00:50:19;;;;;;;19.33;16.37;;;-0.70;99.90;;;-0.02;100.00;99255.25;5224195;28;20282;-80
2023/02/15 00:52:55;;;;;;;18.43;16.47;;;-0.70;99.90;;;0.00;100.00;99250.41;5227543;28;20198;-81
2023/02/15 00:55:28;;;;;;;20.53;16.97;;;-0.80;99.90;;;-0.01;100.00;99246.06;5228578;28;20215;-80
2023/02/15 00:58:01;;;;;;;18.70;16.70;;;-0.80;99.90;;;-0.09;100.00;99240.13;5222082;28;20202;-81
2023/02/15 01:00:35;;;;;;;19.77;17.13;;;-0.90;99.90;;;-0.16;100.00;99246.75;5228472;28;20200;-81
2023/02/15 01:03:08;;;;;;;19.63;16.50;;;-0.90;99.90;;;-0.20;100.00;99254.63;5225958;28;20219;-81
2023/02/15 01:05:43;;;;;;;18.03;16.13;;;-1.00;99.90;;;-0.24;100.00;99255.88;5222618;28;20293;-81
2023/02/15 01:08:16;;;;;;;19.73;16.43;;;-1.00;99.90;;;-0.26;100.00;99253.19;5227566;28;20203;-81
2023/02/15 01:10:50;;;;;;;19.53;16.60;;;-1.00;99.90;;;-0.30;100.00;99245.97;5227525;28;20219;-80
2023/02/15 01:13:23;;;;;;;16.80;15.10;;;-1.10;99.90;;;-0.33;100.00;99254.78;5226300;28;20206;-80
2023/02/15 01:15:57;;;;;;;20.43;17.73;;;-1.10;99.90;;;-0.35;100.00;99246.13;5226794;28;20225;-80
2023/02/15 01:18:30;;;;;;;22.90;18.00;;;-1.10;99.90;;;-0.36;100.00;99235.19;5221976;28;20779;-80
2023/02/15 01:21:13;;;;;;;22.00;17.23;;;-1.00;99.90;;;-0.39;100.00;99237.34;5226691;28;20263;-80
2023/02/15 01:23:47;;;;;;;23.13;18.77;;;-1.10;99.90;;;-0.36;100.00;99236.81;5220515;28;20265;-80
2023/02/15 01:26:20;;;;;;;20.73;16.77;;;-1.00;99.90;;;-0.34;100.00;99231.28;5221818;28;20281;-81
2023/02/15 01:28:53;;;;;;;18.13;16.23;;;-1.00;99.90;;;-0.34;100.00;99242.94;5218228;28;20201;-80
2023/02/15 01:31:26;;;;;;;19.27;16.40;;;-1.10;99.90;;;-0.37;100.00;99240.03;5224775;28;20215;-79
2023/02/15 01:34:00;;;;;;;19.03;16.63;;;-1.10;99.90;;;-0.43;100.00;99234.25;5223648;28;20264;-80
2023/02/15 01:36:36;;;;;;;20.27;16.87;;;-1.20;99.90;;;-0.48;100.00;99237.13;5227002;28;20205;-80
2023/02/15 01:39:10;;;;;;;18.97;15.23;;;-1.20;99.90;;;-0.47;100.00;99238.91;5221251;28;20198;-80
2023/02/15 01:41:43;;;;;;;19.17;16.70;;;-1.30;99.90;;;-0.50;99.74;99238.53;5218440;28;20208;-81
2023/02/15 01:44:49;;;;;;;19.97;17.67;;;-1.30;99.90;;;-0.59;100.00;99236.53;5218042;28;20226;-81
2023/02/15 01:47:27;;;;;;;20.33;16.27;;;-1.40;99.90;;;-0.62;100.00;99234.56;5221767;28;20202;-81
2023/02/15 01:50:09;;;;;;;22.23;16.83;;;-1.40;99.90;;;-0.68;100.00;99231.28;5226153;28;20290;-80
2023/02/15 01:52:51;;;;;;;19.23;15.60;;;-1.40;99.90;;;-0.66;100.00;99234.88;5221475;28;20202;-80
2023/02/15 01:55:27;;;;;;;17.37;15.53;;;-1.40;99.90;;;-0.64;99.99;99233.47;5220069;28;20213;-80
2023/02/15 01:58:02;;;;;;;19.40;15.10;;;-1.40;99.90;;;-0.66;100.00;99229.84;5226158;28;20194;-81
2023/02/15 02:00:36;;;;;;;17.23;15.30;;;-1.40;99.90;;;-0.70;100.00;99232.72;5222609;28;20316;-80
2023/02/15 02:03:09;;;;;;;19.83;16.40;;;-1.50;99.90;;;-0.74;99.90;99230.56;5222650;28;20199;-80
2023/02/15 02:05:42;;;;;;;17.13;15.30;;;-1.50;99.90;;;-0.80;100.00;99233.22;5220264;28;20215;-80
2023/02/15 02:08:16;;;;;;;18.00;15.73;;;-1.50;99.90;;;-0.76;100.00;99236.97;5226604;28;20191;-80
2023/02/15 02:10:49;;;;;;;19.43;16.00;;;-1.50;99.90;;;-0.77;100.00;99235.19;5222336;28;20194;-79
2023/02/15 02:13:22;;;;;;;19.47;16.50;;;-1.50;99.90;;;-0.78;100.00;99233.38;5222421;28;20236;-81
2023/02/15 02:16:05;;;;;;;17.83;15.47;;;-1.50;99.90;;;-0.77;100.00;99240.22;5225539;28;20257;-80
2023/02/15 02:18:50;;;;;;;20.07;15.90;;;-1.50;99.90;;;-0.82;100.00;99232.13;5215901;28;20200;-81
2023/02/15 02:22:06;;;;;;;17.37;14.87;;;-1.60;99.90;;;-0.85;100.00;99230.84;5222574;28;20260;-80
2023/02/15 02:25:12;;;;;;;17.17;15.00;;;-1.60;99.90;;;-0.92;99.50;99230.09;5217367;28;20308;-80
2023/02/15 02:27:51;;;;;;;16.80;14.97;;;-1.70;99.90;;;-0.96;100.00;99227.00;5220102;28;20240;-80
2023/02/15 02:30:54;;;;;;;18.20;14.20;;;-1.70;99.90;;;-0.97;99.92;99228.63;5219984;28;20207;-80
2023/02/15 02:33:52;;;;;;;19.73;15.30;;;-1.70;99.90;;;-0.98;100.00;99229.31;5221108;28;20225;-79
2023/02/15 02:36:36;;;;;;;18.27;15.97;;;-1.70;99.90;;;-0.99;100.00;99225.03;5218675;28;20215;-80
2023/02/15 02:39:22;;;;;;;20.30;15.90;;;-1.70;99.90;;;-1.01;100.00;99218.91;5223925;28;20205;-80
2023/02/15 02:42:03;;;;;;;19.83;16.50;;;-1.70;99.90;;;-1.01;100.00;99213.88;5220143;28;20201;-80
2023/02/15 02:44:44;;;;;;;18.10;16.20;;;-1.70;99.90;;;-1.02;100.00;99217.13;5224238;28;20658;-80
2023/02/15 02:47:23;;;;;;;20.07;15.87;;;-1.70;99.90;;;-1.02;100.00;99217.13;5216678;28;20237;-80
2023/02/15 02:50:02;;;;;;;19.03;16.20;;;-1.70;99.90;;;-1.06;100.00;99209.94;5225171;28;20293;-80
2023/02/15 02:52:41;;;;;;;22.03;16.93;;;-1.70;99.90;;;-1.04;100.00;99213.50;5225629;28;20318;-80
2023/02/15 02:55:20;;;;;;;21.67;16.63;;;-1.70;99.90;;;-1.05;100.00;99204.19;5223642;28;20224;-80
2023/02/15 02:57:56;;;;;;;19.17;16.07;;;-1.70;99.90;;;-1.08;100.00;99215.47;5222746;28;20189;-80
2023/02/15 03:00:33;;;;;;;21.73;16.87;;;-1.70;99.90;;;-1.08;100.00;99215.47;5222375;28;20654;-80
2023/02/15 03:03:14;;;;;;;21.10;17.77;;;-1.70;99.90;;;-1.09;100.00;99209.53;5224280;28;20598;-80
2023/02/15 03:05:55;;;;;;;21.73;16.80;;;-1.70;99.90;;;-1.05;100.00;99201.69;5228133;28;20197;-80
2023/02/15 03:08:37;;;;;;;21.10;16.90;;;-1.60;99.90;;;-0.99;100.00;99206.56;5222938;28;20735;-80
2023/02/15 03:11:12;;;;;;;20.03;15.53;;;-1.60;99.90;;;-1.01;100.00;99198.84;5223875;28;20203;-80
2023/02/15 03:13:48;;;;;;;23.10;16.97;;;-1.70;99.90;;;-1.04;100.00;99198.47;5227471;28;20251;-80
2023/02/15 03:16:28;;;;;;;22.13;17.70;;;-1.70;99.90;;;-1.15;100.00;99199.63;5227640;28;20287;-79
2023/02/15 03:19:07;;;;;;;21.53;17.50;;;-1.70;99.90;;;-1.22;100.00;99196.22;5227767;28;20204;-81
2023/02/15 03:21:49;;;;;;;23.67;18.20;;;-1.80;99.90;;;-1.23;100.00;99199.41;5221972;28;20200;-80
2023/02/15 03:24:29;;;;;;;21.97;18.17;;;-1.90;99.90;;;-1.40;100.00;99198.25;5229698;28;20219;-80
2023/02/15 03:27:05;;;;;;;21.13;17.03;;;-1.90;99.90;;;-1.38;100.00;99194.28;5229256;28;20240;-80
2023/02/15 03:29:39;;;;;;;25.63;20.40;;;-1.90;99.90;;;-1.43;100.00;99191.91;5229730;28;20228;-80
2023/02/15 03:32:15;;;;;;;24.10;19.33;;;-1.90;99.90;;;-1.40;100.00;99195.72;5229501;28;20384;-80
2023/02/15 03:34:48;;;;;;;25.20;20.17;;;-1.90;99.90;;;-1.38;100.00;99194.28;5226039;28;20245;-78
2023/02/15 03:37:31;;;;;;;27.07;19.67;;;-1.90;99.90;;;-1.32;100.00;99199.16;5219069;28;20288;-81
2023/02/15 03:43:06;;;;;;;25.60;19.17;;;-1.90;99.90;;;-1.32;100.00;99190.75;5221662;28;20670;-80
2023/02/15 03:45:54;;;;;;;27.13;21.97;;;-1.90;99.90;;;-1.53;100.00;99202.41;5228056;28;20288;-80
2023/02/15 03:48:31;;;;;;;26.80;20.30;;;-2.00;99.90;;;-1.48;100.00;99203.00;5221098;28;20209;-80
2023/02/15 03:54:04;;;;;;;25.33;18.80;;;-1.90;99.90;;;-1.47;100.00;99203.19;5224379;28;20275;-80
2023/02/15 03:56:40;;;;;;;23.47;19.50;;;-1.90;99.90;;;-1.46;100.00;99200.00;5226404;28;20199;-80
2023/02/15 04:02:14;;;;;;;24.23;18.33;;;-2.00;99.90;;;-1.58;100.00;99190.91;5223978;28;20277;-80
2023/02/15 04:04:48;;;;;;;21.90;19.17;;;-2.10;99.90;;;-1.59;100.00;99191.63;5223443;28;20603;-80
2023/02/15 04:07:21;;;;;;;24.07;18.53;;;-2.10;99.90;;;-1.67;100.00;99192.28;5222513;28;20307;-80
2023/02/15 04:12:46;;;;;;;23.60;18.10;;;-2.10;99.90;;;-1.57;100.00;99190.22;5223890;28;20224;-79
2023/02/15 04:18:10;;;;;;;25.03;18.57;;;-2.00;99.90;;;-1.46;100.00;99189.03;5223329;28;20666;-80
2023/02/15 04:26:27;;;;;;;23.67;18.40;;;-1.90;99.90;;;-1.45;100.00;99188.34;5223108;28;20199;-79
2023/02/15 04:29:00;;;;;;;22.37;19.20;;;-2.00;99.90;;;-1.45;100.00;99184.22;5224473;28;20685;-80
2023/02/15 04:31:33;;;;;;;24.83;20.13;;;-2.00;99.90;;;-1.51;100.00;99183.47;5221707;28;20600;-79
2023/02/15 04:34:06;;;;;;;24.50;19.27;;;-2.00;99.90;;;-1.50;100.00;99175.22;5224682;28;20233;-79
2023/02/15 04:36:40;;;;;;;23.87;19.07;;;-2.10;99.90;;;-1.50;100.00;99171.81;5222369;28;20202;-80
2023/02/15 04:39:14;;;;;;;24.47;18.90;;;-2.10;99.90;;;-1.47;100.00;99172.19;5221912;28;20586;-80
2023/02/15 04:41:49;;;;;;;23.70;19.03;;;-2.00;99.90;;;-1.41;100.00;99178.88;5223015;28;20196;-79
2023/02/15 04:44:22;;;;;;;22.97;19.17;;;-2.00;99.90;;;-1.42;100.00;99177.09;5217988;28;20301;-81
2023/02/15 04:46:55;;;;;;;22.23;18.80;;;-2.00;99.90;;;-1.37;100.00;99176.03;5226915;28;20223;-80
2023/02/15 04:49:28;;;;;;;24.37;19.00;;;-2.00;99.90;;;-1.30;100.00;99171.78;5227493;28;20706;-79
2023/02/15 04:52:01;;;;;;;23.27;18.63;;;-2.00;99.90;;;-1.32;100.00;99175.72;5226405;28;20272;-80
2023/02/15 04:54:34;;;;;;;22.80;19.30;;;-2.00;99.90;;;-1.33;100.00;99172.31;5226517;28;20288;-80
2023/02/15 04:57:10;;;;;;;21.10;17.70;;;-2.00;99.90;;;-1.29;100.00;99169.44;5225667;28;20209;-80
2023/02/15 04:59:43;;;;;;;23.03;18.80;;;-2.00;99.90;;;-1.29;100.00;99168.56;5224944;28;20296;-79
2023/02/15 05:02:16;;;;;;;22.20;17.80;;;-2.00;99.90;;;-1.33;100.00;99158.88;5223631;28;20665;-79
2023/02/15 05:04:49;;;;;;;21.93;18.30;;;-2.10;99.90;;;-1.39;100.00;99162.41;5222912;28;20286;-79
2023/02/15 05:07:22;;;;;;;21.37;18.07;;;-2.10;99.90;;;-1.43;100.00;99165.25;5225150;28;20280;-80
2023/02/15 05:09:55;;;;;;;22.40;18.77;;;-2.10;99.90;;;-1.55;100.00;99166.22;5223348;28;20199;-81
2023/02/15 05:12:30;;;;;;;21.73;18.07;;;-2.20;99.90;;;-1.57;100.00;99162.66;5226814;28;20616;-79
2023/02/15 05:15:03;;;;;;;21.90;18.37;;;-2.20;99.90;;;-1.68;100.00;99160.41;5227195;28;20278;-81
2023/02/15 05:17:36;;;;;;;23.97;19.60;;;-2.30;99.90;;;-1.77;100.00;99165.19;5225639;28;20199;-81
2023/02/15 05:20:10;;;;;;;23.57;19.00;;;-2.30;99.90;;;-1.70;100.00;99167.72;5224422;28;20894;-81
2023/02/15 05:22:44;;;;;;;25.97;19.53;;;-2.30;99.90;;;-1.73;100.00;99158.94;5225396;28;20265;-80
2023/02/15 05:28:20;;;;;;;24.40;18.67;;;-2.30;99.90;;;-1.66;100.00;99159.91;5224953;28;20213;-80
2023/02/15 05:31:04;;;;;;;23.57;19.67;;;-2.20;99.90;;;-1.64;100.00;99167.59;5223454;28;20655;-79
2023/02/15 05:33:38;;;;;;;24.33;19.47;;;-2.20;99.90;;;-1.59;100.00;99166.56;5225121;28;20289;-81
2023/02/15 05:36:12;;;;;;;25.93;20.80;;;-2.20;99.90;;;-1.56;100.00;99161.94;5224893;28;20198;-80
2023/02/15 05:38:45;;;;;;;23.40;19.20;;;-2.20;99.90;;;-1.56;100.00;99156.91;5225085;28;20193;-81
2023/02/15 05:41:18;;;;;;;25.27;19.83;;;-2.20;99.90;;;-1.65;100.00;99165.81;5224802;28;20280;-80
2023/02/15 05:43:52;;;;;;;24.67;19.83;;;-2.20;99.90;;;-1.58;100.00;99163.34;5225272;28;20217;-80
2023/02/15 05:46:25;;;;;;;24.13;19.93;;;-2.20;99.90;;;-1.57;100.00;99165.16;5220288;28;20196;-80
2023/02/15 05:48:59;;;;;;;27.10;20.43;;;-2.20;99.90;;;-1.60;100.00;99160.66;5223867;28;20225;-80
2023/02/15 05:51:32;;;;;;;25.03;19.20;;;-2.20;99.90;;;-1.55;100.00;99161.22;5219947;28;20201;-80
2023/02/15 05:54:05;;;;;;;21.63;17.70;;;-2.20;99.90;;;-1.61;100.00;99162.97;5224874;28;20225;-80
2023/02/15 05:56:38;;;;;;;21.27;18.23;;;-2.20;99.90;;;-1.58;100.00;99168.34;5226152;28;20194;-79
2023/02/15 05:59:13;;;;;;;22.17;17.90;;;-2.20;99.90;;;-1.60;100.00;99168.19;5227988;28;20198;-81
2023/02/15 06:01:46;;;;;;;22.60;18.03;;;-2.30;99.90;;;-1.72;100.00;99166.63;5221276;28;20296;-80
2023/02/15 06:04:19;;;;;;;22.93;18.27;;;-2.30;99.90;;;-1.78;100.00;99168.38;5222057;28;20229;-81
2023/02/15 06:06:53;;;;;;;23.40;18.90;;;-2.30;99.90;;;-1.86;100.00;99169.94;5226205;28;20224;-80
2023/02/15 06:09:26;;;;;;;23.70;20.67;;;-2.40;99.90;;;-1.79;100.00;99175.72;5225260;28;20300;-80
2023/02/15 06:11:59;;;;;;;25.53;20.73;;;-2.40;99.90;;;-1.75;100.00;99167.84;5225372;28;20280;-80
2023/02/15 06:14:33;;;;;;;25.20;20.80;;;-2.40;99.90;;;-1.71;100.00;99170.06;5225873;28;20217;-80
2023/02/15 06:17:06;;;;;;;25.77;20.33;;;-2.40;99.90;;;-1.70;100.00;99170.22;5225672;28;20204;-80
2023/02/15 06:19:40;;;;;;;24.73;20.60;;;-2.30;99.90;;;-1.72;100.00;99176.66;5226185;28;20197;-80
2023/02/15 06:22:14;;;;;;;28.73;21.20;;;-2.30;99.90;;;-1.86;100.00;99174.94;5225810;28;20292;-81
2023/02/15 06:24:47;;;;;;;25.53;20.80;;;-2.40;99.90;;;-1.86;100.00;99184.97;5221852;28;20704;-81
2023/02/15 06:27:20;;;;;;;26.37;20.47;;;-2.40;99.90;;;-1.84;100.00;99187.66;5225525;28;20622;-80
2023/02/15 06:29:55;;;;;;;26.53;20.33;;;-2.40;99.90;;;-1.85;100.00;99183.38;5222297;28;20656;-81
2023/02/15 06:32:28;;;;;;;24.47;20.63;;;-2.40;99.90;;;-1.94;100.00;99185.59;5223840;28;20595;-80
2023/02/15 06:35:01;;;;;;;27.63;20.53;;;-2.50;99.90;;;-1.92;100.00;99179.16;5224388;28;20220;-79
2023/02/15 06:37:34;;;;;;;26.23;20.90;;;-2.40;99.90;;;-1.91;100.00;99190.09;5225188;28;20224;-81
2023/02/15 06:40:09;;;;;;;22.67;18.83;;;-2.40;99.90;;;-1.84;100.00;99186.03;5225501;28;20232;-81
2023/02/15 06:42:43;;;;;;;23.93;20.03;;;-2.40;99.90;;;-1.88;100.00;99191.38;5225816;28;20280;-83
2023/02/15 06:45:17;;;;;;;25.90;20.17;;;-2.40;99.90;;;-1.79;100.00;99195.75;5225554;28;20275;-82
2023/02/15 06:47:51;;;;;;;27.10;20.17;;;-2.40;99.90;;;-1.70;100.00;99201.91;5230241;28;20234;-80
2023/02/15 06:50:24;;;;;;;26.07;19.77;;;-2.30;99.90;;;-1.65;100.00;99211.81;5225469;28;20384;-82
2023/02/15 06:52:58;;;;;;;24.27;19.57;;;-2.20;99.90;;;-1.55;100.00;99203.81;5231710;28;20586;-82
2023/02/15 06:55:31;;;;;;;24.57;19.83;;;-2.20;99.90;;;-1.55;100.00;99197.91;5222004;28;20264;-82
2023/02/15 06:58:04;;;;;;;23.77;19.80;;;-2.20;99.90;;;-1.53;100.00;99197.41;5229843;28;20201;-82
2023/02/15 07:00:38;;;;;;;23.37;19.93;;;-2.10;99.90;;;-1.47;100.00;99193.16;5224332;28;20207;-82
2023/02/15 07:03:15;;;;;;;23.40;18.73;;;-2.10;99.90;;;-1.45;100.00;99196.75;5225266;28;20200;-81
2023/02/15 07:05:48;;;;;;;21.50;17.77;;;-2.00;99.90;;;-1.31;100.00;99188.44;5216700;28;20217;-82
2023/02/15 07:08:22;;;;;;;25.20;20.27;;;-2.00;99.90;;;-1.27;100.00;99198.13;5222516;28;20275;-82
2023/02/15 07:12:40;;;;;;;22.87;18.80;;;-1.90;99.90;;;-1.06;100.00;99204.91;5217353;28;20292;-82
2023/02/15 07:13:49;;;;;;;22.90;19.13;;;-1.70;99.90;;;-0.85;99.95;99195.72;5221901;28;20224;-83
2023/02/15 07:16:23;;;;;;;24.63;19.13;;;-1.50;99.90;;;-0.65;99.65;99198.13;5218359;28;20639;-82
2023/02/15 07:18:57;;;;;;;23.73;19.90;;;-1.40;99.90;;;-0.55;99.20;99199.41;5222308;28;20195;-82
2023/02/15 07:21:30;;;;;;;25.53;19.50;;;-1.30;99.90;;;-0.37;99.63;99192.31;5221579;28;20581;-82
2023/02/15 07:24:04;;;;;;;25.67;19.13;;;-1.10;99.90;;;-0.16;98.76;99202.44;5223810;28;20246;-80
2023/02/15 07:26:37;;;;;;;20.83;18.00;;;-0.90;99.90;;;0.01;98.31;99184.34;5222439;28;20202;-82
2023/02/15 07:29:10;;;;;;;22.17;18.87;;;-0.80;99.90;;;0.18;97.36;99191.38;5220203;28;20223;-82
2023/02/15 07:31:45;;;;;;;22.53;18.43;;;-0.70;99.90;;;0.34;96.96;99192.44;5226941;28;20682;-81
2023/02/15 07:34:18;;;;;;;30.60;23.93;;;-0.50;99.90;;;0.53;96.01;99187.97;5228517;28;20258;-83
2023/02/15 07:36:53;;;;;;;30.17;23.90;;;-0.40;99.90;;;0.74;93.88;99194.59;5220764;28;20209;-82
2023/02/15 07:39:26;;;;;;;29.70;23.17;;;-0.20;99.90;;;0.93;92.96;99197.63;5224916;28;20204;-83
2023/02/15 07:42:01;;;;;;;25.27;21.23;;;-0.10;99.90;;;1.06;91.02;99189.84;5228344;28;20300;-82
2023/02/15 07:44:34;;;;;;;26.33;22.53;;;0.00;99.90;;;1.15;89.60;99180.88;5225978;28;20217;-82
2023/02/15 07:47:09;;;;;;;26.20;21.63;;;0.10;99.90;;;1.24;89.43;99174.34;5227696;28;20592;-82
2023/02/15 07:49:42;;;;;;;27.37;22.30;;;0.20;99.90;;;1.35;87.23;99178.09;5220569;28;20262;-82
2023/02/15 07:52:15;;;;;;;26.23;21.90;;;0.30;99.90;;;1.46;87.01;99181.81;5219956;28;20300;-82
2023/02/15 07:54:48;;;;;;;22.67;20.17;;;0.30;99.90;;;1.59;87.71;99179.97;5217072;28;20237;-82
2023/02/15 07:57:21;;;;;;;23.00;19.73;;;0.50;99.90;;;1.60;87.91;99180.84;5224937;28;20248;-82
2023/02/15 07:59:54;;;;;;;22.20;19.30;;;0.70;99.90;;;1.79;87.76;99182.19;5216774;28;20218;-82
2023/02/15 08:02:30;;;;;;;23.27;20.70;;;0.90;99.90;;;1.85;87.06;99179.47;5219057;28;20258;-83
2023/02/15 08:05:03;;;;;;;24.07;21.47;;;0.90;99.90;;;2.00;87.24;99178.66;5221425;28;20265;-82
2023/02/15 08:07:36;;;;;;;23.57;21.03;;;1.00;99.90;;;2.24;84.80;99180.47;5224633;28;20296;-82
2023/02/15 08:11:24;;;;;;;22.40;20.00;;;1.20;99.90;;;2.30;85.07;99180.25;5221927;28;20275;-83
2023/02/15 08:13:03;;;;;;;24.30;20.57;;;1.40;99.90;;;2.57;84.50;99175.69;5223575;28;20254;-83
2023/02/15 08:15:36;;;;;;;24.17;20.83;;;1.50;99.90;;;2.59;82.26;99181.81;5221399;28;20312;-84
2023/02/15 08:18:10;;;;;;;23.83;20.07;;;1.60;99.90;;;2.71;83.15;99174.66;5223810;28;20213;-82
2023/02/15 08:20:44;;;;;;;25.77;20.70;;;1.80;99.90;;;2.72;82.95;99168.91;5227141;28;20205;-83
2023/02/15 08:23:17;;;;;;;23.27;20.43;;;1.80;99.90;;;2.89;82.85;99175.75;5224409;28;20205;-82
2023/02/15 08:25:50;;;;;;;23.10;19.87;;;1.90;99.90;;;3.04;83.18;99174.91;5225870;28;20262;-83
2023/02/15 08:28:23;;;;;;;24.60;20.17;;;2.10;99.90;;;3.17;81.71;99169.50;5219984;28;20228;-82
2023/02/15 08:30:56;;;;;;;23.63;20.53;;;2.20;99.90;;;3.28;81.11;99170.66;5227966;28;20221;-83
2023/02/15 08:33:31;;;;;;;23.53;20.20;;;2.30;99.90;;;3.44;80.51;99170.66;5219071;28;20205;-82
2023/02/15 08:36:05;;;;;;;23.70;20.67;;;2.50;99.90;;;3.54;79.51;99173.41;5227592;28;20209;-83
2023/02/15 08:38:39;;;;;;;25.93;21.93;;;2.60;99.90;;;3.56;79.52;99175.38;5228071;28;20197;-83
2023/02/15 08:41:15;;;;;;;24.33;21.40;;;2.60;99.90;;;3.59;79.01;99168.09;5219198;28;20200;-82
2023/02/15 08:43:53;;;;;;;22.53;19.67;;;2.70;99.90;;;3.66;80.01;99166.22;5223348;28;20839;-82
2023/02/15 08:46:29;;;;;;;24.80;21.37;;;2.80;99.90;;;3.83;79.83;99168.88;5223142;28;20189;-83
2023/02/15 08:49:05;;;;;;;23.93;21.33;;;3.00;99.90;;;3.91;78.13;99168.03;5222127;28;20208;-82
2023/02/15 08:51:39;;;;;;;23.63;19.93;;;3.10;99.90;;;3.87;79.03;99157.47;5223585;28;20300;-82
2023/02/15 08:54:15;;;;;;;22.23;19.93;;;3.10;99.90;;;3.89;78.98;99158.50;5224661;28;20264;-82
2023/02/15 08:56:49;;;;;;;22.50;20.20;;;3.10;99.90;;;3.96;78.88;99159.31;5226208;28;20198;-82
2023/02/15 08:59:26;;;;;;;22.87;20.47;;;3.20;99.90;;;4.15;79.85;99161.19;5227301;28;20717;-82
2023/02/15 09:01:59;;;;;;;21.83;19.53;;;3.40;99.90;;;4.41;78.12;99153.75;5227096;28;20219;-83
2023/02/15 09:04:34;;;;;;;24.33;21.13;;;3.60;99.90;;;4.44;77.74;99152.41;5222416;28;20236;-84
2023/02/15 09:07:08;;;;;;;22.60;20.23;;;3.80;99.90;;;4.56;78.20;99157.81;5228009;28;20292;-81
2023/02/15 09:09:41;;;;;;;21.77;19.43;;;3.90;99.90;;;4.77;76.72;99153.13;5222589;28;20659;-82
2023/02/15 09:12:14;;;;;;;21.13;18.90;;;4.10;99.90;;;4.95;76.37;99155.88;5221261;28;20197;-84
2023/02/15 09:14:47;;;;;;;22.20;19.83;;;4.20;99.90;;;4.90;76.77;99149.44;5215714;28;20657;-83
2023/02/15 09:17:20;;;;;;;23.63;20.23;;;4.20;99.90;;;5.10;75.37;99146.34;5216026;28;20578;-83
2023/02/15 09:19:55;;;;;;;22.23;19.80;;;4.40;99.90;;;5.22;75.19;99151.72;5222283;28;20202;-83
2023/02/15 09:22:29;;;;;;;21.67;19.53;;;4.60;99.90;;;5.28;75.88;99156.50;5226553;28;20204;-83
2023/02/15 09:25:03;;;;;;;23.17;20.67;;;4.60;99.90;;;5.23;74.46;99150.09;5226526;28;20223;-83
2023/02/15 09:27:36;;;;;;;21.13;19.03;;;4.60;99.90;;;5.42;75.46;99149.50;5226049;28;20280;-83
2023/02/15 09:30:11;;;;;;;22.10;19.73;;;4.70;99.90;;;5.61;74.67;99151.31;5224607;28;20671;-83
2023/02/15 09:32:45;;;;;;;21.57;19.20;;;4.90;99.90;;;5.71;74.49;99151.44;5223281;28;20556;-83
2023/02/15 09:35:20;;;;;;;21.87;19.53;;;5.00;99.90;;;5.78;74.25;99142.75;5220791;28;20604;-83
2023/02/15 09:37:53;;;;;;;22.60;20.30;;;5.10;99.90;;;5.89;72.98;99142.16;5214065;28;20198;-83
2023/02/15 09:40:30;;;;;;;22.60;20.20;;;5.30;99.90;;;6.09;72.89;99136.47;5224656;28;20642;-83
2023/02/15 09:43:23;;;;;;;22.60;20.30;;;5.40;99.90;;;6.24;71.52;99137.94;5220954;28;20228;-83
2023/02/15 09:46:22;;;;;;;22.73;20.37;;;5.50;99.90;;;6.42;71.88;99133.69;5223869;28;20235;-82
2023/02/15 09:49:00;;;;;;;30.07;27.17;;;5.60;99.90;;;6.52;72.22;99120.19;5223050;28;20630;-83
2023/02/15 09:52:00;;;;;;;23.53;21.13;;;5.80;99.90;;;6.56;70.21;99123.94;5225189;28;20692;-83
2023/02/15 09:55:00;;;;;;;27.43;24.53;;;5.80;99.90;;;6.70;71.60;99124.47;5222549;28;20227;-83
2023/02/15 09:57:45;;;;;;;22.20;20.00;;;6.00;99.90;;;6.82;70.30;99128.88;5225261;28;20193;-83
2023/02/15 10:00:32;;;;;;;21.80;19.60;;;6.10;99.90;;;6.65;69.77;99118.06;5220135;28;20240;-83
2023/02/15 10:03:22;;;;;;;23.13;20.73;;;6.00;99.90;;;6.64;70.88;99117.91;5211822;28;20205;-83
2023/02/15 10:06:15;;;;;;;21.63;19.53;;;6.00;99.90;;;6.89;70.81;99124.47;5215475;28;20205;-83
2023/02/15 10:09:12;;;;;;;22.03;19.77;;;6.20;99.90;;;6.97;70.94;99128.63;5217637;28;20637;-83
2023/02/15 10:12:07;;;;;;;21.53;19.40;;;6.30;99.90;;;7.13;69.70;99114.78;5222652;28;20241;-83
2023/02/15 10:15:11;;;;;;;20.57;18.47;;;6.50;99.90;;;7.22;69.75;99123.25;5217373;28;20253;-83
2023/02/15 10:18:09;;;;;;;21.73;19.50;;;6.50;99.90;;;7.31;69.85;99105.38;5215834;28;20228;-83
2023/02/15 10:20:52;;;;;;;22.10;19.63;;;6.70;99.90;;;7.32;69.66;99102.06;5214871;28;20221;-83
2023/02/15 10:23:46;;;;;;;20.67;18.43;;;6.70;99.90;;;7.53;69.94;99108.19;5223997;28;20247;-83
2023/02/15 10:26:23;;;;;;;21.93;19.73;;;7.00;99.90;;;7.61;69.01;99107.19;5209648;28;20202;-83
2023/02/15 10:29:04;;;;;;;21.53;19.20;;;7.00;99.90;;;7.74;68.81;99086.28;5214546;28;20268;-84
2023/02/15 10:31:45;;;;;;;21.23;19.13;;;7.10;99.90;;;7.87;68.96;99086.63;5225875;28;20744;-83
2023/02/15 10:34:21;;;;;;;22.40;20.17;;;7.20;99.90;;;7.77;67.23;99084.91;5220775;28;20217;-83
2023/02/15 10:37:33;;;;;;;21.07;19.00;;;7.10;99.90;;;7.75;69.01;99080.44;5214191;28;20229;-83
2023/02/15 10:40:17;;;;;;;20.60;18.30;;;7.20;99.90;;;7.86;69.31;99074.63;5202902;28;20223;-84
2023/02/15 10:43:11;;;;;;;20.43;18.33;;;7.30;99.90;;;8.08;68.72;99070.63;5220693;28;20201;-82
2023/02/15 10:45:57;;;;;;;21.00;18.90;;;7.50;99.90;;;8.19;68.99;99063.03;5210668;28;20208;-83
2023/02/15 10:48:51;;;;;;;20.40;18.20;;;7.60;99.90;;;8.38;68.27;99068.91;5221570;28;21159;-83
2023/02/15 10:51:38;;;;;;;20.17;18.17;;;7.80;99.90;;;8.47;67.16;99057.00;5213505;28;20255;-82
2023/02/15 10:54:25;;;;;;;19.57;17.67;;;7.80;99.90;;;8.54;67.40;99060.97;5221749;28;20231;-83
2023/02/15 10:57:06;;;;;;;19.13;17.23;;;7.90;99.90;;;8.74;67.12;99058.41;5221215;28;20200;-82
2023/02/15 11:00:05;;;;;;;19.57;16.97;;;8.20;99.90;;;8.76;65.66;99056.00;5216548;28;20216;-82
2023/02/15 11:02:58;;;;;;;18.43;16.63;;;8.30;99.90;;;9.00;65.03;99045.28;5221149;28;20194;-83
2023/02/15 11:05:43;;;;;;;19.07;17.17;;;8.50;99.90;;;9.12;64.14;99047.06;5217331;28;20271;-83
2023/02/15 11:08:16;;;;;;;18.87;16.97;;;8.60;99.90;;;9.11;64.41;99042.72;5224728;28;20597;-83
2023/02/15 11:10:54;;;;;;;18.63;16.77;;;8.60;99.90;;;9.16;63.98;99036.34;5222062;28;20214;-81
2023/02/15 11:13:33;;;;;;;17.57;15.87;;;8.60;99.90;;;9.32;63.53;99025.72;5221906;28;20274;-84